Africa, Pennsylvania
Current Conditions -  °F | °C
As of 11:53 PM on Friday 24 Oct 2014 (Local Time) from KHGR Reporting Station
Clear Clear  
Wind Chill: 11°   Ceiling: Unl
Heat Index: 11°   Visibility: 10mi
Dew Point:   Wind: 5mph
Humidity: 59%   Direction: 210°SSW
Pressure: 29.98"   Gusts: NA
Location:  39.8035°N, 77.9346°W
Report Text: KHGR 250353Z AUTO 21004KT 10SM CLR 11/03 A2998 RMK AO2 SLP160 T01060028
Loading
Personal Weather Stations






























Interactive Weather Map
Tropical Storm Tracking
New forecast layout! Learn more

10-Day Weather Forecast

Advertisements
Track Severe Weather on mobile